Time;durP1;ratioP1;P1;durP2;ratioP2;P2;SDS_P1;SDS_P2;PMS_P1;PMS_P2;Temp;Humidity;BMP_temperature;BMP_pressure;BME280_temperature;BME280_humidity;BME280_pressure;Samples;Min_cycle;Max_cycle;Signal;HPM_P1;HPM_P2
2023/07/29 00:01:30;;;;;;;;;;;;;;;;;;5052777;28;5093;-61
2023/07/29 00:03:55;;;;;;;;;;;;;;;;;;5067182;28;5065;-62
2023/07/29 00:06:21;;;;;;;;;;;;;;;;;;5070517;28;5006;-61
2023/07/29 00:08:46;;;;;;;;;;;;;;;;;;5070249;28;4679;-62
2023/07/29 00:11:11;;;;;;;;;;;;;;;;;;5071025;28;1089;-61
2023/07/29 00:13:36;;;;;;;;;;;;;;;;;;5070371;28;5026;-61
2023/07/29 00:16:02;;;;;;;;;;;;;;;;;;5069968;28;5247;-62
2023/07/29 00:18:27;;;;;;;;;;;;;;;;;;5065129;28;5107;-61
2023/07/29 00:20:53;;;;;;;;;;;;;;;;;;5069935;28;5026;-61
2023/07/29 00:23:21;;;;;;;;;;;;;;;;;;5064162;28;3264;-62
2023/07/29 00:25:46;;;;;;;;;;;;;;;;;;5068887;28;5030;-61
2023/07/29 00:28:12;;;;;;;;;;;;;;;;;;5060327;28;4566;-61
2023/07/29 00:30:37;;;;;;;;;;;;;;;;;;5069490;28;5330;-61
2023/07/29 00:33:02;;;;;;;;;;;;;;;;;;5066891;28;5137;-60
2023/07/29 00:35:28;;;;;;;;;;;;;;;;;;5069325;28;3783;-61
2023/07/29 00:37:53;;;;;;;;;;;;;;;;;;5066949;28;4996;-62
2023/07/29 00:40:21;;;;;;;;;;;;;;;;;;5051139;28;4818;-61
2023/07/29 00:42:47;;;;;;;;;;;;;;;;;;5062438;28;4491;-61
2023/07/29 00:45:12;;;;;;;;;;;;;;;;;;5068502;28;4489;-61
2023/07/29 00:47:37;;;;;;;;;;;;;;;;;;5069961;28;1972;-61
2023/07/29 00:50:03;;;;;;;;;;;;;;;;;;5048727;28;4999;-61
2023/07/29 00:52:28;;;;;;;;;;;;;;;;;;5072845;28;4898;-62
2023/07/29 00:54:53;;;;;;;;;;;;;;;;;;5069621;28;5210;-62
2023/07/29 00:57:18;;;;;;;;;;;;;;;;;;5058202;28;5027;-61
2023/07/29 00:59:44;;;;;;;;;;;;;;;;;;5051574;28;5291;-62
2023/07/29 01:02:09;;;;;;;;;;;;;;;;;;5069944;28;1188;-61
2023/07/29 01:04:34;;;;;;;;;;;;;;;;;;5069328;28;5090;-61
2023/07/29 01:07:08;;;;;;;;;;;;;;;;;;5068187;28;5022;-62
2023/07/29 01:09:34;;;;;;;;;;;;;;;;;;5066871;28;4490;-62
2023/07/29 01:12:10;;;;;;;;;;;;;;;;;;5068782;28;5364;-62
2023/07/29 01:14:43;;;;;;;;;;;;;;;;;;5049553;28;3273;-61
2023/07/29 01:17:08;;;;;;;;;;;;;;;;;;5047460;28;5007;-62
2023/07/29 01:19:43;;;;;;;;;;;;;;;;;;5068054;28;4445;-62
2023/07/29 01:22:08;;;;;;;;;;;;;;;;;;5067321;28;5086;-62
2023/07/29 01:24:33;;;;;;;;;;;;;;;;;;5048896;28;5213;-62
2023/07/29 01:27:01;;;;;;;;;;;;;;;;;;5065673;28;5172;-63
2023/07/29 01:29:26;;;;;;;;;;;;;;;;;;5068160;28;1259;-62
2023/07/29 01:31:51;;;;;;;;;;;;;;;;;;5069069;28;5115;-61
2023/07/29 01:34:25;;;;;;;;;;;;;;;;;;5050643;28;5755;-62
2023/07/29 01:36:51;;;;;;;;;;;;;;;;;;5050660;28;4743;-62
2023/07/29 01:39:16;;;;;;;;;;;;;;;;;;5050528;28;4639;-61
2023/07/29 01:41:42;;;;;;;;;;;;;;;;;;5068955;28;4474;-61
2023/07/29 01:44:07;;;;;;;;;;;;;;;;;;5050021;28;2311;-61
2023/07/29 01:46:33;;;;;;;;;;;;;;;;;;5047838;28;4481;-62
2023/07/29 01:48:58;;;;;;;;;;;;;;;;;;5068669;28;5095;-62
2023/07/29 01:51:24;;;;;;;;;;;;;;;;;;5049148;28;5069;-61
2023/07/29 01:53:49;;;;;;;;;;;;;;;;;;5068592;28;5218;-61
2023/07/29 01:56:14;;;;;;;;;;;;;;;;;;5050818;28;1307;-62
2023/07/29 01:58:39;;;;;;;;;;;;;;;;;;5045596;28;4997;-62
2023/07/29 02:01:05;;;;;;;;;;;;;;;;;;5067413;28;5154;-62
2023/07/29 02:03:30;;;;;;;;;;;;;;;;;;5068167;28;5140;-62
2023/07/29 02:05:55;;;;;;;;;;;;;;;;;;5070899;28;4490;-62
2023/07/29 02:08:20;;;;;;;;;;;;;;;;;;5068125;28;2181;-62
2023/07/29 02:10:46;;;;;;;;;;;;;;;;;;5068051;28;5152;-62
2023/07/29 02:13:11;;;;;;;;;;;;;;;;;;5067491;28;4941;-60
2023/07/29 02:15:36;;;;;;;;;;;;;;;;;;5068081;28;4629;-62
2023/07/29 02:18:03;;;;;;;;;;;;;;;;;;5068065;28;4650;-62
2023/07/29 02:20:28;;;;;;;;;;;;;;;;;;5068840;28;1145;-62
2023/07/29 02:22:53;;;;;;;;;;;;;;;;;;5066328;28;5074;-62
2023/07/29 02:25:19;;;;;;;;;;;;;;;;;;5068208;28;5329;-62
2023/07/29 02:27:44;;;;;;;;;;;;;;;;;;5061143;28;4685;-62
2023/07/29 02:30:09;;;;;;;;;;;;;;;;;;5061174;28;4516;-62
2023/07/29 02:32:35;;;;;;;;;;;;;;;;;;5068094;28;1172;-62
2023/07/29 02:35:00;;;;;;;;;;;;;;;;;;5061731;28;4871;-61
2023/07/29 02:37:25;;;;;;;;;;;;;;;;;;5066568;28;4948;-61
2023/07/29 02:39:50;;;;;;;;;;;;;;;;;;5066490;28;4500;-62
2023/07/29 02:42:16;;;;;;;;;;;;;;;;;;5066462;28;5087;-60
2023/07/29 02:44:41;;;;;;;;;;;;;;;;;;5060925;28;3043;-61
2023/07/29 02:47:06;;;;;;;;;;;;;;;;;;5046224;28;5137;-62
2023/07/29 02:49:31;;;;;;;;;;;;;;;;;;5065825;28;4909;-62
2023/07/29 02:51:57;;;;;;;;;;;;;;;;;;5058077;28;5224;-62
2023/07/29 02:54:22;;;;;;;;;;;;;;;;;;5065642;28;4477;-61
2023/07/29 02:56:47;;;;;;;;;;;;;;;;;;5064595;28;5357;-61
2023/07/29 02:59:12;;;;;;;;;;;;;;;;;;5046667;28;1163;-61
2023/07/29 03:01:38;;;;;;;;;;;;;;;;;;5067716;28;4971;-62
2023/07/29 03:04:03;;;;;;;;;;;;;;;;;;5064101;28;5049;-62
2023/07/29 03:06:28;;;;;;;;;;;;;;;;;;5066910;28;5058;-62
2023/07/29 03:08:54;;;;;;;;;;;;;;;;;;5067106;28;4788;-62
2023/07/29 03:11:19;;;;;;;;;;;;;;;;;;5066971;28;3228;-61
2023/07/29 03:13:45;;;;;;;;;;;;;;;;;;5049465;28;4924;-61
2023/07/29 03:16:10;;;;;;;;;;;;;;;;;;5047299;28;5139;-62
2023/07/29 03:18:36;;;;;;;;;;;;;;;;;;5045570;28;4998;-61
2023/07/29 03:21:01;;;;;;;;;;;;;;;;;;5064699;28;4722;-62
2023/07/29 03:23:27;;;;;;;;;;;;;;;;;;5067382;28;3265;-61
2023/07/29 03:25:56;;;;;;;;;;;;;;;;;;5065678;28;4364;-62
2023/07/29 03:28:22;;;;;;;;;;;;;;;;;;5061261;28;4612;-61
2023/07/29 03:30:47;;;;;;;;;;;;;;;;;;5067662;28;4925;-61
2023/07/29 03:33:12;;;;;;;;;;;;;;;;;;5070122;28;4980;-61
2023/07/29 03:35:37;;;;;;;;;;;;;;;;;;5071070;28;3201;-62
2023/07/29 03:38:03;;;;;;;;;;;;;;;;;;5071398;28;4611;-61
2023/07/29 03:40:28;;;;;;;;;;;;;;;;;;5070135;28;5009;-62
2023/07/29 03:42:53;;;;;;;;;;;;;;;;;;5067833;28;5073;-61
2023/07/29 03:45:18;;;;;;;;;;;;;;;;;;5071794;28;4983;-61
2023/07/29 03:47:44;;;;;;;;;;;;;;;;;;5049694;28;5781;-62
2023/07/29 03:50:09;;;;;;;;;;;;;;;;;;5069801;28;4908;-62
2023/07/29 03:52:34;;;;;;;;;;;;;;;;;;5069669;28;4502;-61
2023/07/29 03:54:59;;;;;;;;;;;;;;;;;;5070116;28;5052;-61
2023/07/29 03:57:25;;;;;;;;;;;;;;;;;;5051637;28;4681;-62
2023/07/29 03:59:50;;;;;;;;;;;;;;;;;;5070776;28;5098;-61
2023/07/29 04:02:15;;;;;;;;;;;;;;;;;;5067237;28;3260;-61
2023/07/29 04:04:42;;;;;;;;;;;;;;;;;;5070591;28;5056;-61
2023/07/29 04:07:07;;;;;;;;;;;;;;;;;;5070415;28;5029;-62
2023/07/29 04:09:32;;;;;;;;;;;;;;;;;;5070692;28;4633;-62
2023/07/29 04:11:58;;;;;;;;;;;;;;;;;;5051146;28;5259;-62
2023/07/29 04:14:23;;;;;;;;;;;;;;;;;;5071266;28;1143;-62
2023/07/29 04:16:49;;;;;;;;;;;;;;;;;;5070058;28;4932;-60
2023/07/29 04:19:14;;;;;;;;;;;;;;;;;;5070310;28;5014;-62
2023/07/29 04:21:39;;;;;;;;;;;;;;;;;;5069529;28;5121;-62
2023/07/29 04:24:04;;;;;;;;;;;;;;;;;;5068444;28;5093;-62
2023/07/29 04:26:30;;;;;;;;;;;;;;;;;;5068970;28;3174;-61
2023/07/29 04:28:55;;;;;;;;;;;;;;;;;;5068270;28;5011;-62
2023/07/29 04:31:20;;;;;;;;;;;;;;;;;;5069438;28;5000;-62
2023/07/29 04:33:46;;;;;;;;;;;;;;;;;;5070482;28;4421;-62
2023/07/29 04:36:11;;;;;;;;;;;;;;;;;;5069145;28;4725;-61
2023/07/29 04:38:36;;;;;;;;;;;;;;;;;;5051453;28;3242;-62
2023/07/29 04:41:02;;;;;;;;;;;;;;;;;;5068686;28;4985;-63
2023/07/29 04:43:28;;;;;;;;;;;;;;;;;;5066522;28;5044;-61
2023/07/29 04:45:53;;;;;;;;;;;;;;;;;;5068257;28;4858;-62
2023/07/29 04:48:18;;;;;;;;;;;;;;;;;;5069193;28;5232;-61
2023/07/29 04:50:43;;;;;;;;;;;;;;;;;;5068899;28;4871;-62
2023/07/29 04:53:09;;;;;;;;;;;;;;;;;;5069924;28;3275;-62
2023/07/29 04:55:34;;;;;;;;;;;;;;;;;;5051614;28;4487;-62
2023/07/29 04:58:00;;;;;;;;;;;;;;;;;;5064636;28;5049;-62
2023/07/29 05:00:25;;;;;;;;;;;;;;;;;;5069454;28;5213;-62
2023/07/29 05:02:51;;;;;;;;;;;;;;;;;;5070103;28;5066;-62
2023/07/29 05:05:16;;;;;;;;;;;;;;;;;;5052128;28;1182;-61
2023/07/29 05:07:42;;;;;;;;;;;;;;;;;;5069220;28;5042;-62
2023/07/29 05:10:07;;;;;;;;;;;;;;;;;;5066415;28;5120;-62
2023/07/29 05:12:32;;;;;;;;;;;;;;;;;;5067190;28;4990;-62
2023/07/29 05:14:58;;;;;;;;;;;;;;;;;;5069234;28;5064;-62
2023/07/29 05:17:23;;;;;;;;;;;;;;;;;;5066883;28;3224;-63
2023/07/29 05:19:48;;;;;;;;;;;;;;;;;;5047824;28;4920;-61
2023/07/29 05:22:14;;;;;;;;;;;;;;;;;;5066206;28;4468;-61
2023/07/29 05:24:39;;;;;;;;;;;;;;;;;;5068459;28;4644;-62
2023/07/29 05:27:04;;;;;;;;;;;;;;;;;;5067228;28;4988;-62
2023/07/29 05:29:30;;;;;;;;;;;;;;;;;;5067091;28;3253;-61
2023/07/29 05:31:56;;;;;;;;;;;;;;;;;;5064149;28;4777;-62
2023/07/29 05:34:22;;;;;;;;;;;;;;;;;;5064644;28;5104;-62
2023/07/29 05:36:47;;;;;;;;;;;;;;;;;;5068876;28;5042;-62
2023/07/29 05:39:12;;;;;;;;;;;;;;;;;;5068660;28;5148;-61
2023/07/29 05:41:37;;;;;;;;;;;;;;;;;;5067682;28;3294;-62
2023/07/29 05:44:03;;;;;;;;;;;;;;;;;;5060835;28;4762;-61
2023/07/29 05:46:28;;;;;;;;;;;;;;;;;;5060093;28;5123;-64
2023/07/29 05:48:53;;;;;;;;;;;;;;;;;;5059671;28;5022;-62
2023/07/29 05:51:19;;;;;;;;;;;;;;;;;;5070800;28;4860;-61
2023/07/29 05:53:44;;;;;;;;;;;;;;;;;;5067802;28;5120;-61
2023/07/29 05:56:10;;;;;;;;;;;;;;;;;;5067841;28;2851;-62
2023/07/29 05:58:35;;;;;;;;;;;;;;;;;;5064612;28;5142;-62
2023/07/29 06:01:00;;;;;;;;;;;;;;;;;;5061283;28;4471;-60
2023/07/29 06:03:26;;;;;;;;;;;;;;;;;;5068703;28;5102;-65
2023/07/29 06:05:51;;;;;;;;;;;;;;;;;;5069103;28;4470;-65
2023/07/29 06:08:16;;;;;;;;;;;;;;;;;;5050060;28;3345;-65
2023/07/29 06:10:41;;;;;;;;;;;;;;;;;;5066669;28;5039;-66
2023/07/29 06:13:07;;;;;;;;;;;;;;;;;;5069735;28;4469;-66
2023/07/29 06:15:32;;;;;;;;;;;;;;;;;;5068798;28;5081;-65
2023/07/29 06:17:57;;;;;;;;;;;;;;;;;;5067150;28;5264;-64
2023/07/29 06:20:22;;;;;;;;;;;;;;;;;;5068380;28;3619;-65
2023/07/29 06:22:48;;;;;;;;;;;;;;;;;;5065993;28;5116;-64
2023/07/29 06:25:13;;;;;;;;;;;;;;;;;;5072987;28;4653;-66
2023/07/29 06:27:38;;;;;;;;;;;;;;;;;;5062702;28;4599;-65
2023/07/29 06:30:04;;;;;;;;;;;;;;;;;;5061956;28;4524;-64
2023/07/29 06:32:29;;;;;;;;;;;;;;;;;;5063796;28;3744;-64
2023/07/29 06:34:54;;;;;;;;;;;;;;;;;;5065745;28;4634;-64
2023/07/29 06:37:20;;;;;;;;;;;;;;;;;;5065316;28;4898;-65
2023/07/29 06:39:45;;;;;;;;;;;;;;;;;;5066095;28;5265;-65
2023/07/29 06:42:11;;;;;;;;;;;;;;;;;;5046332;28;4712;-62
2023/07/29 06:44:36;;;;;;;;;;;;;;;;;;5072655;28;3158;-63
2023/07/29 06:47:01;;;;;;;;;;;;;;;;;;5065170;28;4934;-62
2023/07/29 06:49:27;;;;;;;;;;;;;;;;;;5052730;28;5113;-62
2023/07/29 06:51:52;;;;;;;;;;;;;;;;;;5069571;28;5177;-61
2023/07/29 06:54:17;;;;;;;;;;;;;;;;;;5070704;28;4805;-61
2023/07/29 06:56:43;;;;;;;;;;;;;;;;;;5070110;28;4993;-61
2023/07/29 06:59:08;;;;;;;;;;;;;;;;;;5053567;28;3563;-59
2023/07/29 07:01:33;;;;;;;;;;;;;;;;;;5052644;28;4664;-61
2023/07/29 07:03:59;;;;;;;;;;;;;;;;;;5062489;28;5144;-59
2023/07/29 07:06:24;;;;;;;;;;;;;;;;;;5068369;28;5006;-61
2023/07/29 07:08:50;;;;;;;;;;;;;;;;;;5065720;28;5045;-63
2023/07/29 07:11:15;;;;;;;;;;;;;;;;;;5063376;28;3251;-61
2023/07/29 07:13:40;;;;;;;;;;;;;;;;;;5066762;28;4895;-62
2023/07/29 07:16:06;;;;;;;;;;;;;;;;;;5066409;28;5045;-61
2023/07/29 07:18:31;;;;;;;;;;;;;;;;;;5065361;28;4665;-61
2023/07/29 07:20:56;;;;;;;;;;;;;;;;;;5061539;28;4694;-60
2023/07/29 07:23:21;;;;;;;;;;;;;;;;;;5063691;28;2930;-61
2023/07/29 07:25:47;;;;;;;;;;;;;;;;;;5067170;28;4477;-61
2023/07/29 07:28:12;;;;;;;;;;;;;;;;;;5064969;28;4985;-61
2023/07/29 07:30:43;;;;;;;;;;;;;;;;;;5067000;28;4657;-62
2023/07/29 07:33:08;;;;;;;;;;;;;;;;;;5067496;28;4628;-63
2023/07/29 07:35:34;;;;;;;;;;;;;;;;;;5067329;28;1076;-63
2023/07/29 07:38:01;;;;;;;;;;;;;;;;;;5058058;28;4643;-64
2023/07/29 07:40:27;;;;;;;;;;;;;;;;;;5065602;28;4559;-62
2023/07/29 07:42:52;;;;;;;;;;;;;;;;;;5064350;28;4952;-63
2023/07/29 07:45:17;;;;;;;;;;;;;;;;;;5067066;28;5024;-66
2023/07/29 07:47:43;;;;;;;;;;;;;;;;;;5066502;28;5083;-63
2023/07/29 07:50:08;;;;;;;;;;;;;;;;;;5061516;28;4892;-64
2023/07/29 07:52:33;;;;;;;;;;;;;;;;;;5065853;28;5148;-62
2023/07/29 07:54:59;;;;;;;;;;;;;;;;;;5066490;28;5081;-63
2023/07/29 07:57:24;;;;;;;;;;;;;;;;;;5061547;28;4545;-62
2023/07/29 07:59:50;;;;;;;;;;;;;;;;;;5066702;28;4534;-60
2023/07/29 08:02:15;;;;;;;;;;;;;;;;;;5057683;28;3297;-60
2023/07/29 08:04:41;;;;;;;;;;;;;;;;;;5052798;28;4967;-63
2023/07/29 08:07:06;;;;;;;;;;;;;;;;;;5060458;28;5155;-61
2023/07/29 08:09:31;;;;;;;;;;;;;;;;;;5064075;28;5123;-61
2023/07/29 08:11:57;;;;;;;;;;;;;;;;;;5060776;28;5174;-59
2023/07/29 08:14:22;;;;;;;;;;;;;;;;;;5066284;28;3046;-59
2023/07/29 08:16:47;;;;;;;;;;;;;;;;;;5051046;28;5060;-59
2023/07/29 08:19:13;;;;;;;;;;;;;;;;;;5070197;28;4494;-59
2023/07/29 08:21:38;;;;;;;;;;;;;;;;;;5070401;28;4626;-59
2023/07/29 08:24:03;;;;;;;;;;;;;;;;;;5067619;28;4470;-57
2023/07/29 08:26:28;;;;;;;;;;;;;;;;;;5070592;28;1388;-59
2023/07/29 08:28:54;;;;;;;;;;;;;;;;;;5067574;28;4921;-51
2023/07/29 08:31:19;;;;;;;;;;;;;;;;;;5067206;28;5112;-51
2023/07/29 08:33:44;;;;;;;;;;;;;;;;;;5069585;28;5188;-48
2023/07/29 08:36:09;;;;;;;;;;;;;;;;;;5066594;28;5085;-48
2023/07/29 08:38:34;;;;;;;;;;;;;;;;;;5067484;28;3185;-51
2023/07/29 08:41:18;;;;;;;;;;;;;;;;;;5069610;28;4970;-49
2023/07/29 08:43:47;;;;;;;;;;;;;;;;;;5064572;28;4916;-49
2023/07/29 08:46:13;;;;;;;;;;;;;;;;;;5047626;28;5309;-53
2023/07/29 08:48:42;;;;;;;;;;;;;;;;;;5051449;28;4911;-50
2023/07/29 08:51:10;;;;;;;;;;;;;;;;;;5046940;28;4931;-53
2023/07/29 08:53:36;;;;;;;;;;;;;;;;;;5066271;28;3368;-52
2023/07/29 08:56:01;;;;;;;;;;;;;;;;;;5065972;28;4958;-51
2023/07/29 08:58:26;;;;;;;;;;;;;;;;;;5065401;28;5006;-52
2023/07/29 09:00:52;;;;;;;;;;;;;;;;;;5065113;28;5017;-52
2023/07/29 09:03:17;;;;;;;;;;;;;;;;;;5065283;28;4781;-51
2023/07/29 09:05:42;;;;;;;;;;;;;;;;;;5066726;28;5046;-51
2023/07/29 09:08:08;;;;;;;;;;;;;;;;;;5065541;28;3172;-51
2023/07/29 09:10:37;;;;;;;;;;;;;;;;;;5048896;28;5041;-52
2023/07/29 09:13:03;;;;;;;;;;;;;;;;;;5041963;28;5126;-49
2023/07/29 09:15:29;;;;;;;;;;;;;;;;;;5047678;28;5111;-48
2023/07/29 09:17:55;;;;;;;;;;;;;;;;;;5040715;28;4499;-50
2023/07/29 09:20:26;;;;;;;;;;;;;;;;;;5045986;28;3214;-51
2023/07/29 09:22:53;;;;;;;;;;;;;;;;;;5059953;28;5196;-52
2023/07/29 09:25:22;;;;;;;;;;;;;;;;;;5064503;28;4785;-51
2023/07/29 09:27:47;;;;;;;;;;;;;;;;;;5041325;28;4922;-50
2023/07/29 09:30:16;;;;;;;;;;;;;;;;;;5067054;28;5167;-52
2023/07/29 09:32:41;;;;;;;;;;;;;;;;;;5065270;28;3537;-51
2023/07/29 09:35:10;;;;;;;;;;;;;;;;;;5046620;28;4401;-50
2023/07/29 09:37:35;;;;;;;;;;;;;;;;;;5064128;28;4891;-52
2023/07/29 09:40:00;;;;;;;;;;;;;;;;;;5064442;28;5068;-50
2023/07/29 09:42:25;;;;;;;;;;;;;;;;;;5062077;28;5065;-48
2023/07/29 09:44:51;;;;;;;;;;;;;;;;;;5061512;28;4647;-51
2023/07/29 09:47:23;;;;;;;;;;;;;;;;;;5063267;28;3749;-50
2023/07/29 09:49:48;;;;;;;;;;;;;;;;;;5045776;28;5079;-50
2023/07/29 09:52:17;;;;;;;;;;;;;;;;;;5059644;28;5122;-51
2023/07/29 09:54:43;;;;;;;;;;;;;;;;;;5067925;28;5162;-50
2023/07/29 09:57:08;;;;;;;;;;;;;;;;;;5039016;28;4997;-48
2023/07/29 09:59:34;;;;;;;;;;;;;;;;;;5069403;28;1217;-50
2023/07/29 10:01:59;;;;;;;;;;;;;;;;;;5067510;28;5081;-48
2023/07/29 10:04:24;;;;;;;;;;;;;;;;;;5049900;28;4709;-50
2023/07/29 10:06:49;;;;;;;;;;;;;;;;;;5046884;28;5105;-50
2023/07/29 10:09:14;;;;;;;;;;;;;;;;;;5046048;28;4908;-49
2023/07/29 10:11:40;;;;;;;;;;;;;;;;;;5050156;28;3601;-52
2023/07/29 10:14:05;;;;;;;;;;;;;;;;;;5047655;28;4397;-56
2023/07/29 10:16:30;;;;;;;;;;;;;;;;;;5049098;28;4975;-50
2023/07/29 10:18:56;;;;;;;;;;;;;;;;;;5049670;28;4896;-51
2023/07/29 10:21:21;;;;;;;;;;;;;;;;;;5055243;28;5055;-52
2023/07/29 10:23:49;;;;;;;;;;;;;;;;;;5047155;28;4943;-51
2023/07/29 10:26:14;;;;;;;;;;;;;;;;;;5062038;28;3250;-52
2023/07/29 10:28:39;;;;;;;;;;;;;;;;;;5058777;28;4611;-66
2023/07/29 10:31:05;;;;;;;;;;;;;;;;;;5048676;28;5009;-65
2023/07/29 10:33:30;;;;;;;;;;;;;;;;;;5048910;28;5388;-65
2023/07/29 10:35:56;;;;;;;;;;;;;;;;;;5062964;28;4727;-65
2023/07/29 10:38:24;;;;;;;;;;;;;;;;;;5049511;28;1303;-65
2023/07/29 10:40:56;;;;;;;;;;;;;;;;;;5047705;28;4939;-64
2023/07/29 10:43:25;;;;;;;;;;;;;;;;;;5045399;28;5060;-65
2023/07/29 10:45:51;;;;;;;;;;;;;;;;;;5066518;28;4453;-64
2023/07/29 10:48:34;;;;;;;;;;;;;;;;;;5067428;28;5021;-65
2023/07/29 10:51:19;;;;;;;;;;;;;;;;;;5062004;28;5062;-65
2023/07/29 10:53:44;;;;;;;;;;;;;;;;;;5063675;28;4901;-63
2023/07/29 10:56:09;;;;;;;;;;;;;;;;;;5061974;28;1164;-63
2023/07/29 10:58:34;;;;;;;;;;;;;;;;;;5058375;28;5118;-64
2023/07/29 11:00:59;;;;;;;;;;;;;;;;;;5064184;28;5020;-65
2023/07/29 11:03:28;;;;;;;;;;;;;;;;;;5063827;28;5099;-64
2023/07/29 11:05:54;;;;;;;;;;;;;;;;;;5063260;28;4514;-64
2023/07/29 11:08:37;;;;;;;;;;;;;;;;;;5059523;28;3583;-66
2023/07/29 11:11:06;;;;;;;;;;;;;;;;;;5061374;28;4935;-68
2023/07/29 11:13:32;;;;;;;;;;;;;;;;;;5060972;28;4450;-65
2023/07/29 11:15:58;;;;;;;;;;;;;;;;;;5066447;28;4974;-66
2023/07/29 11:18:26;;;;;;;;;;;;;;;;;;5065964;28;5155;-56
2023/07/29 11:20:51;;;;;;;;;;;;;;;;;;5066882;28;4449;-57
2023/07/29 11:23:16;;;;;;;;;;;;;;;;;;5049183;28;1288;-56
2023/07/29 11:25:41;;;;;;;;;;;;;;;;;;5047282;28;5485;-57
2023/07/29 11:28:07;;;;;;;;;;;;;;;;;;5043891;28;6004;-58
2023/07/29 11:30:33;;;;;;;;;;;;;;;;;;5066442;28;5072;-65
2023/07/29 11:32:58;;;;;;;;;;;;;;;;;;5052120;28;4488;-68
2023/07/29 11:35:24;;;;;;;;;;;;;;;;;;5066567;28;3318;-62
2023/07/29 11:37:49;;;;;;;;;;;;;;;;;;5065060;28;5030;-63
2023/07/29 11:40:15;;;;;;;;;;;;;;;;;;5057721;28;4688;-63
2023/07/29 11:42:40;;;;;;;;;;;;;;;;;;5061279;28;5016;-62
2023/07/29 11:45:06;;;;;;;;;;;;;;;;;;5043832;28;5436;-63
2023/07/29 11:47:35;;;;;;;;;;;;;;;;;;5065139;28;1977;-62
2023/07/29 11:50:00;;;;;;;;;;;;;;;;;;5065345;28;5162;-58
2023/07/29 11:52:25;;;;;;;;;;;;;;;;;;5064883;28;4695;-54
2023/07/29 11:54:51;;;;;;;;;;;;;;;;;;5066513;28;5187;-55
2023/07/29 11:57:16;;;;;;;;;;;;;;;;;;5063176;28;5112;-54
2023/07/29 11:59:42;;;;;;;;;;;;;;;;;;5069387;28;4939;-53
2023/07/29 12:02:15;;;;;;;;;;;;;;;;;;5050534;28;3254;-65
2023/07/29 12:04:40;;;;;;;;;;;;;;;;;;5049168;28;4647;-61
2023/07/29 12:07:06;;;;;;;;;;;;;;;;;;5042407;28;4687;-61
2023/07/29 12:09:31;;;;;;;;;;;;;;;;;;5065881;28;5242;-61
2023/07/29 12:11:56;;;;;;;;;;;;;;;;;;5064442;28;4453;-51
2023/07/29 12:14:22;;;;;;;;;;;;;;;;;;5035779;28;2140;-48
2023/07/29 12:16:51;;;;;;;;;;;;;;;;;;5062178;28;5077;-50
2023/07/29 12:19:17;;;;;;;;;;;;;;;;;;5068136;28;4942;-50
2023/07/29 12:21:43;;;;;;;;;;;;;;;;;;5063649;28;5305;-49
2023/07/29 12:24:08;;;;;;;;;;;;;;;;;;5068848;28;5086;-49
2023/07/29 12:26:33;;;;;;;;;;;;;;;;;;5067726;28;1173;-49
2023/07/29 12:28:59;;;;;;;;;;;;;;;;;;5046734;28;4848;-49
2023/07/29 12:31:31;;;;;;;;;;;;;;;;;;5066022;28;5273;-50
2023/07/29 12:33:56;;;;;;;;;;;;;;;;;;5069439;28;4436;-56
2023/07/29 12:36:21;;;;;;;;;;;;;;;;;;5062553;28;4760;-53
2023/07/29 12:38:46;;;;;;;;;;;;;;;;;;5060299;28;4505;-56
2023/07/29 12:41:11;;;;;;;;;;;;;;;;;;5067735;28;1116;-59
2023/07/29 12:43:37;;;;;;;;;;;;;;;;;;5063563;28;5197;-56
2023/07/29 12:46:03;;;;;;;;;;;;;;;;;;5069012;28;5061;-55
2023/07/29 12:48:28;;;;;;;;;;;;;;;;;;5069698;28;4770;-49
2023/07/29 12:50:53;;;;;;;;;;;;;;;;;;5061674;28;5164;-57
2023/07/29 12:53:18;;;;;;;;;;;;;;;;;;5064297;28;3226;-53
2023/07/29 12:55:44;;;;;;;;;;;;;;;;;;5068084;28;4507;-55
2023/07/29 12:58:09;;;;;;;;;;;;;;;;;;5061909;28;5368;-56
2023/07/29 13:00:34;;;;;;;;;;;;;;;;;;5069035;28;4663;-54
2023/07/29 13:02:59;;;;;;;;;;;;;;;;;;5068308;28;4845;-52
2023/07/29 13:05:25;;;;;;;;;;;;;;;;;;5069217;28;2108;-53
2023/07/29 13:07:50;;;;;;;;;;;;;;;;;;5068740;28;5058;-55
2023/07/29 13:10:16;;;;;;;;;;;;;;;;;;5063597;28;5184;-50
2023/07/29 13:12:41;;;;;;;;;;;;;;;;;;5046309;28;5110;-49
2023/07/29 13:15:06;;;;;;;;;;;;;;;;;;5068913;28;5042;-56
2023/07/29 13:17:32;;;;;;;;;;;;;;;;;;5068779;28;1231;-55
2023/07/29 13:19:57;;;;;;;;;;;;;;;;;;5068355;28;5007;-55
2023/07/29 13:22:22;;;;;;;;;;;;;;;;;;5064512;28;4493;-58
2023/07/29 13:24:48;;;;;;;;;;;;;;;;;;5068282;28;5086;-49
2023/07/29 13:27:13;;;;;;;;;;;;;;;;;;5065219;28;4606;-50
2023/07/29 13:29:39;;;;;;;;;;;;;;;;;;5048458;28;2294;-45
2023/07/29 13:32:05;;;;;;;;;;;;;;;;;;5047559;28;4900;-52
2023/07/29 13:34:30;;;;;;;;;;;;;;;;;;5042201;28;5114;-46
2023/07/29 13:36:55;;;;;;;;;;;;;;;;;;5047419;28;5235;-46
2023/07/29 13:39:20;;;;;;;;;;;;;;;;;;5050267;28;4589;-46
2023/07/29 13:41:46;;;;;;;;;;;;;;;;;;5054053;28;4961;-49
2023/07/29 13:44:11;;;;;;;;;;;;;;;;;;5049760;28;1277;-50
2023/07/29 13:46:36;;;;;;;;;;;;;;;;;;5047537;28;4564;-50
2023/07/29 13:49:02;;;;;;;;;;;;;;;;;;5039620;28;5080;-50
2023/07/29 13:51:28;;;;;;;;;;;;;;;;;;5045712;28;5030;-51
2023/07/29 13:53:53;;;;;;;;;;;;;;;;;;5045754;28;5051;-55
2023/07/29 13:56:18;;;;;;;;;;;;;;;;;;5043501;28;3027;-55
2023/07/29 13:58:44;;;;;;;;;;;;;;;;;;5046458;28;5956;-54
2023/07/29 14:01:09;;;;;;;;;;;;;;;;;;5047526;28;5093;-46
2023/07/29 14:03:34;;;;;;;;;;;;;;;;;;5044911;28;4869;-49
2023/07/29 14:05:59;;;;;;;;;;;;;;;;;;5027277;28;5054;-48
2023/07/29 14:08:25;;;;;;;;;;;;;;;;;;5046712;28;1914;-51
2023/07/29 14:10:50;;;;;;;;;;;;;;;;;;5051755;28;5088;-51
2023/07/29 14:13:15;;;;;;;;;;;;;;;;;;5046787;28;4932;-52
2023/07/29 14:15:40;;;;;;;;;;;;;;;;;;5047044;28;5080;-51
2023/07/29 14:18:06;;;;;;;;;;;;;;;;;;5048006;28;4695;-54
2023/07/29 14:20:32;;;;;;;;;;;;;;;;;;5044719;28;3270;-49
2023/07/29 14:22:57;;;;;;;;;;;;;;;;;;5044829;28;4471;-47
2023/07/29 14:25:22;;;;;;;;;;;;;;;;;;5055160;28;5251;-48
2023/07/29 14:27:47;;;;;;;;;;;;;;;;;;5046428;28;4637;-47
2023/07/29 14:30:13;;;;;;;;;;;;;;;;;;5056329;28;4909;-50
2023/07/29 14:32:38;;;;;;;;;;;;;;;;;;5069284;28;3161;-48
2023/07/29 14:35:03;;;;;;;;;;;;;;;;;;5066503;28;5109;-48
2023/07/29 14:37:31;;;;;;;;;;;;;;;;;;5066292;28;5104;-48
2023/07/29 14:40:00;;;;;;;;;;;;;;;;;;5060574;28;5098;-48
2023/07/29 14:42:25;;;;;;;;;;;;;;;;;;5061915;28;5599;-49
2023/07/29 14:44:50;;;;;;;;;;;;;;;;;;5066821;28;4481;-50
2023/07/29 14:47:15;;;;;;;;;;;;;;;;;;5066767;28;3241;-49
2023/07/29 14:49:41;;;;;;;;;;;;;;;;;;5065006;28;4984;-49
2023/07/29 14:52:06;;;;;;;;;;;;;;;;;;5061897;28;5041;-49
2023/07/29 14:54:32;;;;;;;;;;;;;;;;;;5067384;28;4872;-48
2023/07/29 14:56:57;;;;;;;;;;;;;;;;;;5066263;28;4614;-48
2023/07/29 14:59:22;;;;;;;;;;;;;;;;;;5049670;28;2544;-48
2023/07/29 15:01:47;;;;;;;;;;;;;;;;;;5067417;28;5554;-49
2023/07/29 15:04:13;;;;;;;;;;;;;;;;;;5064949;28;5173;-49
2023/07/29 15:06:38;;;;;;;;;;;;;;;;;;5062487;28;5017;-47
2023/07/29 15:09:04;;;;;;;;;;;;;;;;;;5067176;28;5040;-48
2023/07/29 15:11:29;;;;;;;;;;;;;;;;;;5068139;28;1085;-47
2023/07/29 15:13:54;;;;;;;;;;;;;;;;;;5066513;28;5004;-48
2023/07/29 15:16:22;;;;;;;;;;;;;;;;;;5067631;28;4834;-48
2023/07/29 15:18:47;;;;;;;;;;;;;;;;;;5066922;28;4978;-50
2023/07/29 15:21:13;;;;;;;;;;;;;;;;;;5067032;28;4950;-49
2023/07/29 15:23:38;;;;;;;;;;;;;;;;;;5067527;28;1286;-47
2023/07/29 15:26:03;;;;;;;;;;;;;;;;;;5068953;28;5071;-48
2023/07/29 15:28:29;;;;;;;;;;;;;;;;;;5070856;28;5218;-48
2023/07/29 15:30:54;;;;;;;;;;;;;;;;;;5070629;28;4737;-48
2023/07/29 15:33:19;;;;;;;;;;;;;;;;;;5052984;28;4884;-48
2023/07/29 15:35:44;;;;;;;;;;;;;;;;;;5070946;28;5015;-48
2023/07/29 15:38:10;;;;;;;;;;;;;;;;;;5071028;28;1262;-48
2023/07/29 15:40:35;;;;;;;;;;;;;;;;;;5071117;28;4986;-48
2023/07/29 15:43:00;;;;;;;;;;;;;;;;;;5068643;28;4624;-48
2023/07/29 15:45:26;;;;;;;;;;;;;;;;;;5069170;28;5057;-47
2023/07/29 15:47:51;;;;;;;;;;;;;;;;;;5069896;28;4905;-50
2023/07/29 15:50:16;;;;;;;;;;;;;;;;;;5071273;28;4969;-49
2023/07/29 15:52:42;;;;;;;;;;;;;;;;;;5070539;28;5041;-48
2023/07/29 15:55:08;;;;;;;;;;;;;;;;;;5065304;28;5571;-49
2023/07/29 15:57:34;;;;;;;;;;;;;;;;;;5064792;28;5058;-47
2023/07/29 15:59:59;;;;;;;;;;;;;;;;;;5068913;28;5138;-48
2023/07/29 16:02:24;;;;;;;;;;;;;;;;;;5070487;28;1246;-48
2023/07/29 16:04:49;;;;;;;;;;;;;;;;;;5070215;28;4598;-48
2023/07/29 16:07:14;;;;;;;;;;;;;;;;;;5070740;28;5016;-48
2023/07/29 16:09:40;;;;;;;;;;;;;;;;;;5072133;28;5029;-48
2023/07/29 16:12:05;;;;;;;;;;;;;;;;;;5071435;28;5421;-50
2023/07/29 16:14:30;;;;;;;;;;;;;;;;;;5070430;28;1590;-48
2023/07/29 16:16:56;;;;;;;;;;;;;;;;;;5070437;28;4481;-49
2023/07/29 16:19:24;;;;;;;;;;;;;;;;;;5070202;28;5057;-48
2023/07/29 16:21:50;;;;;;;;;;;;;;;;;;5070046;28;4964;-51
2023/07/29 16:24:15;;;;;;;;;;;;;;;;;;5073307;28;5397;-49
2023/07/29 16:26:41;;;;;;;;;;;;;;;;;;5052571;28;1193;-48
2023/07/29 16:29:07;;;;;;;;;;;;;;;;;;5060939;28;4998;-48
2023/07/29 16:31:32;;;;;;;;;;;;;;;;;;5068348;28;4402;-47
2023/07/29 16:33:57;;;;;;;;;;;;;;;;;;5068917;28;4885;-48
2023/07/29 16:36:23;;;;;;;;;;;;;;;;;;5068285;28;4847;-48
2023/07/29 16:38:48;;;;;;;;;;;;;;;;;;5050523;28;5034;-48
2023/07/29 16:41:13;;;;;;;;;;;;;;;;;;5069488;28;1118;-48
2023/07/29 16:43:39;;;;;;;;;;;;;;;;;;5066304;28;5095;-48
2023/07/29 16:46:04;;;;;;;;;;;;;;;;;;5066194;28;5153;-48
2023/07/29 16:48:29;;;;;;;;;;;;;;;;;;5068754;28;5282;-49
2023/07/29 16:50:54;;;;;;;;;;;;;;;;;;5068026;28;5498;-52
2023/07/29 16:53:19;;;;;;;;;;;;;;;;;;5071752;28;1084;-51